Time;durP1;ratioP1;P1;durP2;ratioP2;P2;SDS_P1;SDS_P2;PMS_P1;PMS_P2;Temp;Humidity;BMP_temperature;BMP_pressure;BME280_temperature;BME280_humidity;BME280_pressure;Samples;Min_cycle;Max_cycle;Signal;HPM_P1;HPM_P2
2022/05/18 00:02:15;;;;;;;35.53;11.95;;;;;;;16.58;81.39;101764.53;4995560;28;20030;-35
2022/05/18 00:04:41;;;;;;;26.55;11.88;;;;;;;16.56;81.66;101761.19;4995810;28;20042;-35
2022/05/18 00:07:06;;;;;;;31.25;12.82;;;;;;;16.53;81.68;101762.41;4994942;28;20057;-32
2022/05/18 00:09:31;;;;;;;24.30;11.88;;;;;;;16.51;81.90;101763.66;4994624;28;20022;-35
2022/05/18 00:11:57;;;;;;;22.08;11.32;;;;;;;16.48;82.11;101758.63;4993716;28;20085;-34
2022/05/18 00:14:22;;;;;;;23.23;11.38;;;;;;;16.46;82.32;101762.38;4997633;28;20026;-34
2022/05/18 00:16:47;;;;;;;25.10;12.10;;;;;;;16.42;82.15;101765.69;4994845;28;20058;-34
2022/05/18 00:19:13;;;;;;;28.33;12.43;;;;;;;16.43;81.63;101768.22;4977735;28;20552;-35
2022/05/18 00:21:38;;;;;;;25.48;11.98;;;;;;;16.34;81.85;101768.56;4995240;28;20095;-35
2022/05/18 00:24:04;;;;;;;27.13;12.45;;;;;;;16.28;82.16;101767.47;4993609;28;20069;-34
2022/05/18 00:26:30;;;;;;;27.60;12.05;;;;;;;16.25;82.70;101770.59;4994187;28;20034;-35
2022/05/18 00:28:55;;;;;;;28.80;11.82;;;;;;;16.23;82.54;101770.78;4994322;28;20074;-35
2022/05/18 00:31:20;;;;;;;21.30;11.27;;;;;;;16.24;82.50;101772.47;4993755;28;20045;-34
2022/05/18 00:33:46;;;;;;;23.58;12.38;;;;;;;16.23;82.65;101767.22;4995434;28;20058;-34
2022/05/18 00:36:12;;;;;;;27.02;12.75;;;;;;;16.24;83.33;101763.47;4994705;28;20030;-35
2022/05/18 00:38:37;;;;;;;22.75;12.90;;;;;;;16.27;83.23;101773.94;4977794;28;20434;-35
2022/05/18 00:41:02;;;;;;;29.73;13.25;;;;;;;16.31;82.96;101768.97;4993218;28;20035;-33
2022/05/18 00:43:30;;;;;;;22.80;13.32;;;;;;;16.31;82.85;101764.38;4993842;28;20034;-33
2022/05/18 00:45:57;;;;;;;27.38;13.40;;;;;;;16.32;82.94;101766.03;4994537;28;20015;-34
2022/05/18 00:48:22;;;;;;;26.13;13.05;;;;;;;16.35;82.96;101772.94;4993737;28;20029;-34
2022/05/18 00:50:48;;;;;;;27.17;14.23;;;;;;;16.37;82.86;101757.28;4993690;28;20043;-34
2022/05/18 00:53:23;;;;;;;24.95;13.13;;;;;;;16.41;82.81;101764.03;4976579;28;20033;-35
2022/05/18 00:55:52;;;;;;;30.70;13.63;;;;;;;16.42;82.34;101760.25;4976206;28;20102;-33
2022/05/18 00:58:31;;;;;;;28.88;14.55;;;;;;;16.40;81.90;101762.31;4976229;28;20113;-33
2022/05/18 01:00:56;;;;;;;34.72;13.50;;;;;;;16.40;82.04;101757.75;4977963;28;20094;-35
2022/05/18 01:03:25;;;;;;;22.58;13.43;;;;;;;16.38;81.80;101748.97;4994409;28;20014;-34
2022/05/18 01:06:05;;;;;;;24.55;14.35;;;;;;;16.35;82.15;101756.66;4993526;28;20043;-35
2022/05/18 01:08:54;;;;;;;27.35;13.70;;;;;;;16.31;82.14;101749.94;4991242;28;20026;-35
2022/05/18 01:11:20;;;;;;;23.58;13.77;;;;;;;16.28;81.78;101756.63;4994721;28;20070;-33
2022/05/18 01:13:46;;;;;;;34.75;14.40;;;;;;;16.26;82.39;101755.97;4977552;28;20042;-36
2022/05/18 01:16:12;;;;;;;25.95;15.38;;;;;;;16.28;82.35;101756.63;4995130;28;20031;-36
2022/05/18 01:18:38;;;;;;;24.50;14.93;;;;;;;16.30;82.65;101762.69;4994682;28;20034;-35
2022/05/18 01:21:03;;;;;;;27.17;14.65;;;;;;;16.29;82.04;101758.28;4977890;28;20720;-33
2022/05/18 01:23:38;;;;;;;23.73;14.98;;;;;;;16.32;82.28;101760.59;4994704;28;20030;-34
2022/05/18 01:26:13;;;;;;;30.80;15.35;;;;;;;16.32;82.35;101749.72;4960230;28;20031;-34
2022/05/18 01:28:41;;;;;;;28.73;15.00;;;;;;;16.29;81.86;101750.13;4993722;28;20079;-34
2022/05/18 01:31:07;;;;;;;26.92;14.57;;;;;;;16.27;81.68;101748.66;4994520;28;20087;-33
2022/05/18 01:33:33;;;;;;;26.77;14.75;;;;;;;16.23;81.63;101745.50;4995030;28;20074;-33
2022/05/18 01:35:59;;;;;;;26.17;15.38;;;;;;;16.21;81.62;101742.97;4997072;28;20043;-34
2022/05/18 01:38:24;;;;;;;25.85;13.65;;;;;;;16.19;81.82;101744.19;4996564;28;20046;-34
2022/05/18 01:40:55;;;;;;;25.40;13.27;;;;;;;16.21;81.82;101742.13;4996844;28;20037;-34
2022/05/18 01:43:33;;;;;;;29.25;14.90;;;;;;;16.21;81.54;101744.84;4997033;28;20053;-33
2022/05/18 01:46:00;;;;;;;25.90;15.70;;;;;;;16.18;81.51;101746.09;4996284;28;20039;-36
2022/05/18 01:48:35;;;;;;;29.15;16.73;;;;;;;16.16;81.62;101744.59;4996811;28;20027;-34
2022/05/18 01:51:02;;;;;;;31.35;16.90;;;;;;;16.12;81.96;101748.75;4979395;28;20026;-37
2022/05/18 01:53:28;;;;;;;22.03;17.03;;;;;;;16.13;81.82;101739.56;4997012;28;20955;-35
2022/05/18 01:55:54;;;;;;;29.63;17.65;;;;;;;16.13;81.78;101734.97;4996963;28;20082;-34
2022/05/18 01:58:20;;;;;;;29.38;17.30;;;;;;;16.14;81.71;101733.09;4996986;28;20015;-33
2022/05/18 02:00:46;;;;;;;27.70;17.58;;;;;;;16.17;81.49;101732.72;4997593;28;20030;-34
2022/05/18 02:03:12;;;;;;;33.97;17.95;;;;;;;16.18;81.52;101732.50;4997680;28;20030;-33
2022/05/18 02:05:38;;;;;;;28.25;17.48;;;;;;;16.19;81.54;101723.34;4997361;28;20074;-33
2022/05/18 02:08:04;;;;;;;30.58;18.40;;;;;;;16.21;81.41;101736.69;4997174;28;20019;-34
2022/05/18 02:10:30;;;;;;;31.38;17.98;;;;;;;16.18;81.32;101728.97;4997284;28;20022;-34
2022/05/18 02:12:55;;;;;;;28.45;18.52;;;;;;;16.14;81.44;101733.09;4998005;28;20090;-33
2022/05/18 02:15:23;;;;;;;28.42;19.45;;;;;;;16.08;82.30;101737.44;4996997;28;20015;-33
2022/05/18 02:17:49;;;;;;;29.88;17.40;;;;;;;15.97;82.35;101751.53;4996180;28;20019;-35
2022/05/18 02:20:14;;;;;;;28.67;18.65;;;;;;;15.90;83.20;101746.03;4996214;28;20021;-34
2022/05/18 02:22:40;;;;;;;30.13;18.67;;;;;;;15.91;83.71;101744.19;4979439;28;20039;-33
2022/05/18 02:25:05;;;;;;;32.53;18.83;;;;;;;15.92;83.38;101749.41;4996222;28;20023;-34
2022/05/18 02:27:31;;;;;;;29.13;19.17;;;;;;;15.96;83.65;101748.00;4995140;28;20113;-34
2022/05/18 02:29:56;;;;;;;32.10;18.77;;;;;;;15.97;83.27;101752.38;4996233;28;20058;-33
2022/05/18 02:32:22;;;;;;;31.85;18.30;;;;;;;16.03;82.92;101756.19;4978586;28;20027;-33
2022/05/18 02:34:48;;;;;;;31.77;18.15;;;;;;;16.04;82.33;101757.88;4996359;28;20034;-33
2022/05/18 02:37:13;;;;;;;28.40;18.88;;;;;;;16.02;82.47;101757.25;4995968;28;20030;-34
2022/05/18 02:39:38;;;;;;;32.50;19.15;;;;;;;16.01;82.49;101753.69;4996368;28;20529;-36
2022/05/18 02:42:04;;;;;;;32.05;17.55;;;;;;;16.04;82.37;101765.19;4997233;28;20042;-37
2022/05/18 02:44:29;;;;;;;28.48;18.05;;;;;;;16.06;82.33;101766.69;4996715;28;20038;-33
2022/05/18 02:46:59;;;;;;;32.53;17.77;;;;;;;16.09;82.05;101765.41;4994124;28;20044;-33
2022/05/18 02:49:24;;;;;;;29.35;16.05;;;;;;;16.12;81.76;101765.06;4995246;28;20017;-34
2022/05/18 02:51:51;;;;;;;28.52;16.95;;;;;;;16.18;81.44;101761.53;4995200;28;20023;-34
2022/05/18 02:57:01;;;;;;;30.25;17.00;;;;;;;16.29;80.36;101782.72;4993818;28;20252;-35
2022/05/18 02:59:27;;;;;;;28.75;15.70;;;;;;;16.28;79.68;101786.50;4961555;28;20022;-35
2022/05/18 03:01:52;;;;;;;22.70;14.27;;;;;;;16.37;78.96;101785.28;4995161;28;20033;-35
2022/05/18 03:04:18;;;;;;;23.70;15.07;;;;;;;16.42;78.99;101796.41;4994056;28;20066;-37
2022/05/18 03:06:43;;;;;;;25.90;15.60;;;;;;;16.45;78.32;101804.16;4993995;28;20035;-33
2022/05/18 03:09:09;;;;;;;28.17;15.40;;;;;;;16.54;77.51;101790.47;4994518;28;20099;-37
2022/05/18 03:11:34;;;;;;;32.75;14.95;;;;;;;16.65;75.31;101808.94;4994060;28;20037;-34
2022/05/18 03:13:59;;;;;;;24.25;13.68;;;;;;;16.80;73.99;101801.53;4993725;28;20043;-33
2022/05/18 03:16:26;;;;;;;26.10;14.85;;;;;;;16.91;73.51;101796.56;4994062;28;20076;-34
2022/05/18 03:18:51;;;;;;;36.97;15.27;;;;;;;17.01;73.36;101799.75;4993081;28;20041;-35
2022/05/18 03:24:01;;;;;;;29.17;13.68;;;;;;;17.13;73.09;101800.03;4994872;28;20046;-35
2022/05/18 03:26:27;;;;;;;20.65;13.85;;;;;;;17.12;73.52;101799.19;4977658;28;20035;-36
2022/05/18 03:28:56;;;;;;;23.05;14.05;;;;;;;17.11;73.85;101792.06;4997596;28;20253;-34
2022/05/18 03:31:26;;;;;;;25.42;15.30;;;;;;;17.11;74.18;101792.06;5007480;28;20038;-35
2022/05/18 03:33:52;;;;;;;27.63;14.75;;;;;;;17.10;73.83;101793.09;4995730;28;20043;-35
2022/05/18 03:36:19;;;;;;;23.77;15.25;;;;;;;17.10;74.14;101796.66;4994594;28;20081;-34
2022/05/18 03:38:46;;;;;;;28.02;14.95;;;;;;;17.13;74.58;101800.84;4994241;28;20045;-35
2022/05/18 03:41:13;;;;;;;32.08;15.20;;;;;;;17.10;74.75;101801.28;4994378;28;20053;-34
2022/05/18 03:43:39;;;;;;;28.13;15.07;;;;;;;17.10;74.96;101806.72;4994709;28;20037;-34
2022/05/18 03:46:05;;;;;;;29.08;15.00;;;;;;;17.11;74.69;101797.50;4994204;28;20627;-35
2022/05/18 03:48:31;;;;;;;30.90;15.55;;;;;;;17.12;74.48;101807.34;4994122;28;20050;-34
2022/05/18 03:50:58;;;;;;;22.95;14.95;;;;;;;17.09;75.09;101811.31;4993848;28;20042;-37
2022/05/18 03:53:24;;;;;;;30.98;15.02;;;;;;;17.08;75.37;101815.06;4994083;28;20047;-37
2022/05/18 03:55:50;;;;;;;33.97;15.93;;;;;;;17.09;75.08;101810.47;4993525;28;20043;-34
2022/05/18 03:58:17;;;;;;;30.15;16.55;;;;;;;17.11;75.15;101819.25;4993093;28;20042;-35
2022/05/18 04:00:44;;;;;;;28.70;16.65;;;;;;;17.13;75.01;101821.78;4977826;28;20820;-33
2022/05/18 04:03:10;;;;;;;27.17;15.38;;;;;;;17.13;74.63;101816.34;4993840;28;20027;-35
2022/05/18 04:05:37;;;;;;;34.65;15.43;;;;;;;17.11;75.10;101817.41;4994676;28;20027;-36
2022/05/18 04:08:07;;;;;;;29.88;15.85;;;;;;;17.13;75.54;101822.63;4987473;28;20085;-35
2022/05/18 04:10:32;;;;;;;33.60;17.77;;;;;;;17.14;75.10;101820.75;4977274;28;20050;-35
2022/05/18 04:12:58;;;;;;;24.73;15.45;;;;;;;17.22;75.22;101810.53;4990606;28;20023;-35
2022/05/18 04:15:23;;;;;;;29.90;16.08;;;;;;;17.26;75.25;101819.97;4994096;28;20043;-34
2022/05/18 04:17:48;;;;;;;34.17;17.13;;;;;;;17.33;75.25;101822.72;4995096;28;20041;-35
2022/05/18 04:20:17;;;;;;;31.40;17.00;;;;;;;17.38;74.33;101819.38;4978682;28;20021;-34
2022/05/18 04:22:42;;;;;;;28.83;17.08;;;;;;;17.53;73.11;101822.78;4994356;28;20065;-35
2022/05/18 04:25:09;;;;;;;33.30;17.58;;;;;;;17.69;71.99;101822.44;5001354;28;20058;-35
2022/05/18 04:27:34;;;;;;;36.13;17.85;;;;;;;17.83;71.58;101827.94;4977333;28;20066;-37
2022/05/18 04:30:00;;;;;;;36.58;18.55;;;;;;;17.93;71.00;101833.81;4993674;28;20027;-34
2022/05/18 04:32:25;;;;;;;33.95;16.52;;;;;;;18.01;70.79;101835.50;4993097;28;20043;-35
2022/05/18 04:34:51;;;;;;;27.75;17.25;;;;;;;18.10;70.63;101842.44;4992884;28;20065;-35
2022/05/18 04:37:17;;;;;;;26.00;15.85;;;;;;;18.16;70.50;101847.06;4991189;28;20023;-33
2022/05/18 04:39:43;;;;;;;28.90;15.35;;;;;;;18.24;70.84;101854.19;4993389;28;20023;-35
2022/05/18 04:42:09;;;;;;;27.77;14.77;;;;;;;18.31;71.03;101850.44;4983301;28;20093;-35
2022/05/18 04:44:34;;;;;;;28.98;14.20;;;;;;;18.38;71.19;101847.72;4992746;28;20035;-35
2022/05/18 04:46:59;;;;;;;22.40;13.63;;;;;;;18.41;71.47;101847.31;4991806;28;20043;-32
2022/05/18 04:49:25;;;;;;;27.58;13.13;;;;;;;18.41;72.00;101848.13;4987405;28;20035;-34
2022/05/18 04:51:51;;;;;;;22.90;13.25;;;;;;;18.44;72.09;101846.88;4989268;28;20031;-32
2022/05/18 04:54:16;;;;;;;24.45;13.20;;;;;;;18.44;72.54;101852.31;4987889;28;20026;-33
2022/05/18 04:56:42;;;;;;;21.55;11.93;;;;;;;18.41;72.93;101850.03;4988805;28;20053;-36
2022/05/18 04:59:07;;;;;;;28.00;12.52;;;;;;;18.42;73.45;101854.41;4985245;28;20464;-35
2022/05/18 05:01:34;;;;;;;20.63;11.80;;;;;;;18.43;73.65;101861.53;4968666;28;20066;-34
2022/05/18 05:04:00;;;;;;;20.13;10.60;;;;;;;18.42;74.46;101860.69;4987715;28;20046;-35
2022/05/18 05:06:25;;;;;;;18.45;10.68;;;;;;;18.41;75.35;101866.38;4987435;28;20035;-34
2022/05/18 05:08:50;;;;;;;18.92;9.80;;;;;;;18.42;75.85;101870.78;4987505;28;20034;-36
2022/05/18 05:11:16;;;;;;;16.55;9.30;;;;;;;18.40;76.40;101872.84;4990062;28;20029;-34
2022/05/18 05:13:41;;;;;;;18.95;10.07;;;;;;;18.42;76.43;101870.78;4991632;28;20067;-35
2022/05/18 05:16:08;;;;;;;20.75;10.55;;;;;;;18.46;76.74;101871.19;4991931;28;20042;-33
2022/05/18 05:18:34;;;;;;;19.95;11.05;;;;;;;18.47;76.77;101876.44;4993431;28;20471;-34
2022/05/18 05:21:00;;;;;;;20.50;9.90;;;;;;;18.50;76.90;101873.28;4974716;28;20027;-34
2022/05/18 05:23:26;;;;;;;23.23;9.85;;;;;;;18.57;76.95;101879.59;4993351;28;20039;-33
2022/05/18 05:25:52;;;;;;;21.10;10.25;;;;;;;18.52;76.97;101882.09;4976347;28;20097;-33
2022/05/18 05:28:18;;;;;;;18.35;10.27;;;;;;;18.48;77.40;101889.00;4991092;28;20149;-32
2022/05/18 05:30:43;;;;;;;21.10;10.15;;;;;;;18.47;77.87;101900.97;4974085;28;20023;-34
2022/05/18 05:33:08;;;;;;;19.15;10.45;;;;;;;18.45;78.31;101899.50;4992323;28;20031;-34
2022/05/18 05:35:34;;;;;;;19.30;9.57;;;;;;;18.48;78.48;101913.53;4991170;28;20053;-34
2022/05/18 05:37:59;;;;;;;17.67;9.68;;;;;;;18.41;79.40;101910.81;4992241;28;20023;-36
2022/05/18 05:40:25;;;;;;;26.88;10.68;;;;;;;18.29;80.14;101914.38;4992490;28;20038;-33
2022/05/18 05:42:50;;;;;;;21.75;10.18;;;;;;;18.31;80.58;101912.28;4992386;28;20035;-34
2022/05/18 05:45:15;;;;;;;18.98;10.38;;;;;;;18.41;80.37;101923.63;4993042;28;20031;-33
2022/05/18 05:47:41;;;;;;;25.83;9.57;;;;;;;18.48;78.97;101924.44;4991827;28;20066;-34
2022/05/18 05:50:07;;;;;;;29.00;8.25;;;;;;;18.54;77.35;101936.44;4992796;28;20037;-33
2022/05/18 05:52:32;;;;;;;15.18;7.78;;;;;;;18.48;76.80;101935.34;4989465;28;20131;-34
2022/05/18 05:54:59;;;;;;;16.25;7.00;;;;;;;18.51;76.30;101934.09;4990773;28;20038;-36
2022/05/18 05:57:27;;;;;;;17.08;8.50;;;;;;;18.58;75.36;101938.50;4991856;28;20386;-34
2022/05/18 05:59:53;;;;;;;18.38;8.23;;;;;;;18.67;73.74;101941.88;4992823;28;20086;-34
2022/05/18 06:02:19;;;;;;;16.63;7.15;;;;;;;18.82;73.14;101930.78;4974696;28;20090;-35
2022/05/18 06:04:44;;;;;;;15.05;7.38;;;;;;;19.02;72.83;101938.97;4991537;28;20026;-34
2022/05/18 06:07:10;;;;;;;26.98;7.63;;;;;;;19.27;71.63;101945.44;4992738;28;20035;-34
2022/05/18 06:09:35;;;;;;;14.90;7.32;;;;;;;19.51;70.22;101943.91;4994243;28;20051;-34
2022/05/18 06:12:01;;;;;;;19.20;7.55;;;;;;;19.97;69.43;101950.28;4993501;28;20042;-34
2022/05/18 06:14:27;;;;;;;22.13;7.60;;;;;;;20.41;66.66;101951.31;4993266;28;20046;-34
2022/05/18 06:16:52;;;;;;;14.85;7.40;;;;;;;20.94;65.08;101950.91;4991644;28;20038;-34
2022/05/18 06:19:17;;;;;;;13.88;7.25;;;;;;;21.66;63.25;101962.19;4992388;28;20030;-35
2022/05/18 06:21:43;;;;;;;18.00;7.25;;;;;;;22.37;60.10;101959.84;4974102;28;20042;-32
2022/05/18 06:24:09;;;;;;;16.83;7.00;;;;;;;22.68;58.12;101963.38;4993778;28;20027;-35
2022/05/18 06:26:36;;;;;;;23.33;7.50;;;;;;;22.58;58.24;101961.22;4993002;28;20079;-34
2022/05/18 06:29:02;;;;;;;27.13;8.50;;;;;;;22.93;56.33;101975.00;4992833;28;20027;-35
2022/05/18 06:31:27;;;;;;;24.38;7.75;;;;;;;23.21;54.90;101992.72;4991495;28;20362;-33
2022/05/18 06:33:52;;;;;;;18.33;7.28;;;;;;;23.32;54.67;101991.88;4991304;28;20042;-33
2022/05/18 06:36:18;;;;;;;16.80;7.13;;;;;;;23.31;54.91;101995.69;4991722;28;20058;-33
2022/05/18 06:38:44;;;;;;;15.65;7.50;;;;;;;23.40;54.97;101997.00;4992425;28;20072;-35
2022/05/18 06:41:21;;;;;;;21.23;6.93;;;;;;;23.38;54.62;101993.69;4992642;28;20035;-34
2022/05/18 06:43:58;;;;;;;16.42;7.28;;;;;;;23.69;54.14;101999.84;4992623;28;20126;-34
2022/05/18 06:46:25;;;;;;;17.43;7.00;;;;;;;24.11;52.85;101999.63;4976067;28;20035;-33
2022/05/18 06:48:51;;;;;;;25.02;8.20;;;;;;;24.48;50.83;101997.34;4992587;28;20277;-33
2022/05/18 06:51:22;;;;;;;20.13;7.47;;;;;;;24.29;51.71;101999.44;4991099;28;20042;-32
2022/05/18 06:53:51;;;;;;;15.90;7.57;;;;;;;24.25;52.17;102009.28;4991496;28;20023;-33
2022/05/18 06:56:18;;;;;;;21.05;7.85;;;;;;;24.15;51.77;102017.34;4991371;28;20101;-33
2022/05/18 06:58:43;;;;;;;19.37;8.17;;;;;;;24.29;50.51;102018.72;4991711;28;20484;-35
2022/05/18 07:01:08;;;;;;;25.40;7.10;;;;;;;24.56;51.10;102029.16;4991644;28;20342;-33
2022/05/18 07:03:34;;;;;;;14.40;7.25;;;;;;;24.88;50.15;102034.13;4991350;28;20058;-34
2022/05/18 07:06:00;;;;;;;23.90;8.38;;;;;;;24.67;49.67;102032.91;4990004;28;20034;-34
2022/05/18 07:08:25;;;;;;;21.83;8.45;;;;;;;24.91;48.94;102033.66;4990872;28;20035;-34
2022/05/18 07:10:50;;;;;;;27.50;8.00;;;;;;;25.23;49.50;102041.34;4991805;28;20090;-34
2022/05/18 07:13:19;;;;;;;20.80;8.32;;;;;;;25.50;48.21;102038.72;4992048;28;20054;-36
2022/05/18 07:15:45;;;;;;;25.80;9.57;;;;;;;25.62;47.14;102040.31;4991762;28;20138;-35
2022/05/18 07:18:10;;;;;;;29.63;10.57;;;;;;;25.63;47.33;102039.19;4990738;28;20571;-37
2022/05/18 07:20:36;;;;;;;24.95;10.02;;;;;;;25.78;46.35;102040.50;4988702;28;20114;-36
2022/05/18 07:23:01;;;;;;;28.42;10.95;;;;;;;26.07;45.58;102049.47;4988805;28;20395;-34
2022/05/18 07:25:26;;;;;;;25.25;10.02;;;;;;;26.05;45.94;102044.19;4989750;28;20523;-35
2022/05/18 07:27:52;;;;;;;26.73;11.55;;;;;;;25.66;46.49;102056.31;4989208;28;20030;-34
2022/05/18 07:30:17;;;;;;;26.88;11.57;;;;;;;26.03;46.09;102057.41;4990122;28;20046;-37
2022/05/18 07:32:42;;;;;;;26.77;11.25;;;;;;;26.60;43.81;102049.81;4989820;28;20065;-36
2022/05/18 07:35:08;;;;;;;30.17;12.65;;;;;;;26.59;43.57;102051.72;4989067;28;20055;-35
2022/05/18 07:37:33;;;;;;;25.17;12.10;;;;;;;26.19;45.00;102052.09;4988253;28;20026;-35
2022/05/18 07:39:59;;;;;;;29.23;11.30;;;;;;;26.05;45.81;102055.22;4990504;28;20017;-36
2022/05/18 07:42:24;;;;;;;29.88;11.93;;;;;;;26.28;45.11;102061.59;4989776;28;20052;-34
2022/05/18 07:44:49;;;;;;;30.67;12.25;;;;;;;26.34;45.13;102063.31;4990700;28;20022;-33
2022/05/18 07:47:15;;;;;;;29.40;12.25;;;;;;;27.22;42.19;102062.28;4990739;28;20091;-33
2022/05/18 07:49:42;;;;;;;28.52;14.40;;;;;;;27.23;42.35;102072.25;4991324;28;20035;-34
2022/05/18 07:52:08;;;;;;;36.45;13.50;;;;;;;27.55;41.97;102080.50;4989477;28;20061;-35
2022/05/18 07:54:34;;;;;;;27.00;12.90;;;;;;;27.36;41.67;102080.94;4972199;28;20122;-37
2022/05/18 07:57:00;;;;;;;35.90;14.57;;;;;;;26.64;43.88;102081.34;4988493;28;20278;-33
2022/05/18 07:59:25;;;;;;;38.20;15.05;;;;;;;26.87;43.18;102078.25;4989582;28;20083;-35
2022/05/18 08:01:51;;;;;;;38.72;15.13;;;;;;;27.03;42.57;102087.50;4990822;28;20030;-36
2022/05/18 08:04:16;;;;;;;36.92;15.65;;;;;;;27.39;41.95;102095.31;4991085;28;20307;-35
2022/05/18 08:06:42;;;;;;;35.53;15.68;;;;;;;27.50;41.64;102092.34;4991828;28;20038;-33
2022/05/18 08:09:07;;;;;;;30.75;15.27;;;;;;;27.60;41.13;102097.13;4991374;28;20031;-34
2022/05/18 08:15:05;;;;;;;34.25;15.20;;;;;;;28.08;41.33;102094.38;4991494;28;20107;-35
2022/05/18 08:17:17;;;;;;;37.47;16.20;;;;;;;28.78;39.19;102108.75;4990381;28;20045;-35
2022/05/18 08:19:43;;;;;;;37.15;15.98;;;;;;;28.79;38.24;102110.44;4991412;28;20075;-33
2022/05/18 08:22:08;;;;;;;44.70;16.73;;;;;;;28.59;39.45;102103.72;4990890;28;20082;-35
2022/05/18 08:24:36;;;;;;;36.83;16.17;;;;;;;28.47;39.99;102108.69;4990736;28;20115;-34
2022/05/18 08:27:02;;;;;;;45.85;16.38;;;;;;;28.67;39.69;102108.75;4990251;28;20090;-37
2022/05/18 08:29:27;;;;;;;38.67;16.63;;;;;;;28.65;39.35;102119.28;4989739;28;20253;-34
2022/05/18 08:31:53;;;;;;;31.42;15.95;;;;;;;28.96;38.38;102118.50;4989961;28;20046;-34
2022/05/18 08:34:19;;;;;;;47.30;17.50;;;;;;;28.71;38.98;102122.06;4957592;28;20090;-36
2022/05/18 08:36:44;;;;;;;45.20;16.05;;;;;;;29.00;38.49;102123.22;4991946;28;20047;-35
2022/05/18 08:39:10;;;;;;;39.97;16.98;;;;;;;29.32;37.60;102117.44;4991675;28;20035;-33
2022/05/18 08:41:41;;;;;;;36.83;15.37;;;;;;;29.35;37.60;102118.00;4991575;28;20031;-34
2022/05/18 08:44:08;;;;;;;22.42;11.70;;;;;;;29.34;36.48;102124.66;4976812;28;20002;-34
2022/05/18 08:46:45;;;;;;;37.53;10.05;;;;;;;29.32;35.66;102116.59;4978880;28;20030;-34
2022/05/18 08:49:20;;;;;;;23.85;8.30;;;;;;;29.01;34.98;102112.94;4996048;28;20162;-33
2022/05/18 08:51:45;;;;;;;17.15;7.18;;;;;;;29.35;34.93;102116.03;4978650;28;20205;-36
2022/05/18 08:54:48;;;;;;;18.43;7.73;;;;;;;29.23;34.65;102112.75;4995693;28;20046;-36
2022/05/18 08:57:40;;;;;;;18.00;6.10;;;;;;;29.94;33.36;102117.38;4992395;28;20033;-35
2022/05/18 09:01:08;;;;;;;17.10;6.28;;;;;;;30.54;31.33;102128.53;4970659;29;20609;-34
2022/05/18 09:03:46;;;;;;;25.10;7.00;;;;;;;30.32;31.80;102129.75;4916463;29;20091;-35
2022/05/18 09:06:25;;;;;;;24.17;6.47;;;;;;;30.15;32.71;102134.81;4901004;29;20060;-34
2022/05/18 09:11:47;;;;;;;21.25;6.07;;;;;;;30.37;32.12;102135.28;4975834;29;20046;-36
2022/05/18 09:14:13;;;;;;;28.87;7.27;;;;;;;30.15;31.96;102141.19;4974660;29;20043;-34
2022/05/18 09:16:44;;;;;;;;;;;;;;;30.39;31.44;102135.84;4974584;29;20027;-36
2022/05/18 09:19:26;;;;;;;16.98;6.10;;;;;;;30.28;31.34;102139.78;4974314;29;20510;-34
2022/05/18 09:22:29;;;;;;;15.70;6.53;;;;;;;30.09;31.78;102152.56;4975606;29;20102;-36
2022/05/18 09:25:02;;;;;;;17.38;6.63;;;;;;;30.50;31.29;102133.84;4975509;29;20023;-34
2022/05/18 09:27:42;;;;;;;20.92;7.38;;;;;;;29.81;33.11;102135.44;4975116;29;20162;-33
2022/05/18 09:30:44;;;;;;;20.27;7.15;;;;;;;29.92;32.55;102137.09;4974002;29;20136;-34
2022/05/18 09:33:28;;;;;;;21.10;6.70;;;;;;;29.83;31.61;102129.59;4957976;29;20118;-36
2022/05/18 09:36:47;;;;;;;20.92;6.72;;;;;;;29.82;32.20;102134.31;4973781;28;20051;-33
2022/05/18 09:39:15;;;;;;;16.17;5.20;;;;;;;30.33;31.19;102134.22;4904215;29;20044;-36
2022/05/18 09:42:27;;;;;;;14.10;5.18;;;;;;;30.40;30.70;102133.88;4973454;29;20042;-34
2022/05/18 09:45:03;;;;;;;13.52;4.93;;;;;;;30.35;30.93;102131.13;4894934;29;20109;-34
2022/05/18 09:47:32;;;;;;;12.00;4.05;;;;;;;29.90;30.73;102138.47;4878885;29;20192;-36
2022/05/18 09:50:00;;;;;;;14.25;4.43;;;;;;;29.42;30.94;102133.25;4938311;29;20051;-34
2022/05/18 09:52:28;;;;;;;14.98;4.28;;;;;;;28.47;32.48;102133.63;4983467;28;20082;-35
2022/05/18 09:54:58;;;;;;;18.17;4.82;;;;;;;27.74;34.15;102136.22;4973492;28;20122;-35
2022/05/18 09:57:33;;;;;;;15.73;4.43;;;;;;;27.18;34.92;102150.44;4991999;28;20038;-32
2022/05/18 10:00:07;;;;;;;15.18;4.78;;;;;;;26.74;35.99;102144.97;4973817;28;20023;-36
2022/05/18 10:08:23;;;;;;;11.85;3.50;;;;;;;25.67;37.64;102158.06;4992282;28;20049;-33
2022/05/18 10:10:55;;;;;;;10.50;3.80;;;;;;;25.83;37.82;102159.19;4991411;28;20027;-37
2022/05/18 10:13:24;;;;;;;11.30;3.78;;;;;;;25.53;38.34;102156.75;4973637;28;20062;-35
2022/05/18 10:16:00;;;;;;;13.68;3.70;;;;;;;25.40;39.12;102153.22;4974370;28;20058;-33
2022/05/18 10:18:55;;;;;;;14.52;4.68;;;;;;;25.07;41.04;102159.53;4974270;28;20062;-33
2022/05/18 10:21:26;;;;;;;20.60;5.70;;;;;;;25.01;40.48;102149.47;4992721;28;20463;-32
2022/05/18 10:23:52;;;;;;;17.33;5.57;;;;;;;25.40;39.92;102147.72;4975361;28;20042;-32
2022/05/18 10:26:23;;;;;;;20.40;6.40;;;;;;;25.84;39.15;102155.34;4991781;28;20089;-34
2022/05/18 10:29:07;;;;;;;27.52;5.63;;;;;;;26.83;37.23;102157.22;4992627;28;20286;-32
2022/05/18 10:31:36;;;;;;;19.40;5.43;;;;;;;27.81;35.32;102161.75;4991892;28;20086;-34
2022/05/18 10:34:25;;;;;;;19.08;5.53;;;;;;;27.79;36.15;102172.22;4974276;28;20023;-33
2022/05/18 10:36:54;;;;;;;23.13;7.32;;;;;;;28.23;34.88;102172.78;4989604;28;20070;-34
2022/05/18 10:39:36;;;;;;;24.30;7.65;;;;;;;28.32;34.19;102175.06;4991151;28;20027;-33
2022/05/18 10:42:28;;;;;;;24.73;7.25;;;;;;;28.20;34.30;102167.81;4992245;28;20038;-33
2022/05/18 10:44:55;;;;;;;25.13;7.13;;;;;;;28.04;34.74;102174.34;4991862;28;20446;-36
2022/05/18 10:47:26;;;;;;;19.05;7.95;;;;;;;27.63;35.98;102175.97;4989534;28;20035;-36
2022/05/18 10:49:52;;;;;;;29.63;8.88;;;;;;;26.96;37.16;102174.47;4989299;28;20037;-36
2022/05/18 10:52:22;;;;;;;19.90;7.05;;;;;;;26.84;36.53;102171.88;4989904;28;20027;-37
2022/05/18 10:54:59;;;;;;;26.45;7.70;;;;;;;26.41;37.08;102171.59;4974418;28;20031;-34
2022/05/18 10:57:37;;;;;;;19.85;7.18;;;;;;;25.86;38.05;102166.97;4990389;28;20035;-35
2022/05/18 11:00:06;;;;;;;20.65;6.45;;;;;;;25.99;38.28;102161.09;4991663;28;20074;-35
2022/05/18 11:02:45;;;;;;;20.73;7.20;;;;;;;26.74;37.11;102158.78;4991855;28;20034;-33
2022/05/18 11:05:34;;;;;;;16.33;6.03;;;;;;;27.23;36.13;102172.59;4991739;28;20023;-33
2022/05/18 11:08:00;;;;;;;16.88;5.05;;;;;;;28.01;33.85;102169.34;4990858;28;20039;-33
2022/05/18 11:10:38;;;;;;;15.20;4.20;;;;;;;28.05;33.72;102164.94;4975441;28;20037;-36
2022/05/18 11:13:18;;;;;;;12.75;3.97;;;;;;;27.94;33.37;102163.22;4975693;28;20073;-35
2022/05/18 11:15:49;;;;;;;14.32;4.10;;;;;;;28.30;32.88;102166.19;4974633;28;20023;-34
2022/05/18 11:18:25;;;;;;;14.40;4.00;;;;;;;28.75;32.01;102160.00;4990866;28;20034;-34
2022/05/18 11:21:12;;;;;;;12.55;3.58;;;;;;;29.27;30.94;102163.75;4973724;28;20031;-33
2022/05/18 11:24:01;;;;;;;12.00;3.90;;;;;;;29.44;30.90;102158.75;4974166;28;20038;-34
2022/05/18 11:26:40;;;;;;;16.85;3.42;;;;;;;29.03;30.61;102158.69;4991148;28;20061;-37
2022/05/18 11:29:13;;;;;;;19.30;4.32;;;;;;;28.43;32.43;102160.16;4973145;28;20038;-35
2022/05/18 11:31:48;;;;;;;17.00;5.00;;;;;;;28.17;32.47;102160.03;4971135;28;20046;-36
2022/05/18 11:34:24;;;;;;;19.15;5.25;;;;;;;28.02;32.89;102157.19;4989140;28;20046;-36
2022/05/18 11:36:57;;;;;;;19.05;4.57;;;;;;;28.07;32.92;102148.91;4972146;28;20042;-34
2022/05/18 11:39:32;;;;;;;18.10;4.90;;;;;;;28.92;31.90;102158.97;4990567;28;20031;-34